Time;durP1;ratioP1;P1;durP2;ratioP2;P2;SDS_P1;SDS_P2;PMS_P1;PMS_P2;Temp;Humidity;BMP_temperature;BMP_pressure;BME280_temperature;BME280_humidity;BME280_pressure;Samples;Min_cycle;Max_cycle;Signal;HPM_P1;HPM_P2
2021/03/12 00:00:59;;;;;;;8.90;1.27;;;6.50;1.00;;;;;;5024539;28;21234;-73
2021/03/12 00:03:30;;;;;;;2.13;1.00;;;6.50;1.00;;;;;;5025552;28;20461;-73
2021/03/12 00:05:58;;;;;;;7.27;1.63;;;6.50;1.00;;;;;;5024915;28;20441;-73
2021/03/12 00:08:28;;;;;;;4.00;1.00;;;6.50;1.00;;;;;;5023994;28;20512;-73
2021/03/12 00:10:54;;;;;;;3.57;1.50;;;6.50;1.00;;;;;;5020297;28;22693;-73
2021/03/12 00:13:20;;;;;;;4.63;1.30;;;6.50;1.00;;;;;;5020685;28;20695;-73
2021/03/12 00:15:47;;;;;;;7.50;1.80;;;6.40;1.00;;;;;;5001738;28;21031;-73
2021/03/12 00:18:18;;;;;;;3.37;1.53;;;6.40;1.00;;;;;;5023262;28;20441;-72
2021/03/12 00:20:43;;;;;;;2.47;1.43;;;6.30;1.00;;;;;;5024323;28;21236;-72
2021/03/12 00:23:09;;;;;;;3.00;1.60;;;6.30;1.00;;;;;;5023034;28;20472;-73
2021/03/12 00:25:47;;;;;;;3.83;1.97;;;6.30;1.00;;;;;;5026729;28;20198;-73
2021/03/12 00:28:15;;;;;;;5.73;2.10;;;6.20;1.00;;;;;;5021023;28;20186;-73
2021/03/12 00:30:42;;;;;;;6.20;1.83;;;6.20;1.00;;;;;;5008314;28;20445;-72
2021/03/12 00:33:08;;;;;;;7.00;1.80;;;6.20;1.00;;;;;;5021418;28;20477;-72
2021/03/12 00:35:39;;;;;;;4.73;1.40;;;6.20;1.00;;;;;;5022643;28;20553;-73
2021/03/12 00:38:05;;;;;;;10.70;1.30;;;6.20;1.00;;;;;;5024294;28;20981;-72
2021/03/12 00:40:40;;;;;;;5.73;1.97;;;6.20;1.00;;;;;;5021528;28;20671;-72
2021/03/12 00:43:06;;;;;;;3.93;1.70;;;6.20;1.00;;;;;;5024698;28;20530;-72
2021/03/12 00:45:36;;;;;;;7.80;1.60;;;6.20;1.00;;;;;;5012827;28;20480;-72
2021/03/12 00:48:09;;;;;;;3.53;1.83;;;6.20;1.00;;;;;;5007038;28;20445;-75
2021/03/12 00:50:37;;;;;;;2.93;1.50;;;6.20;1.00;;;;;;5022581;28;21038;-73
2021/03/12 00:53:04;;;;;;;5.37;1.60;;;6.20;1.00;;;;;;5017930;28;20522;-73
2021/03/12 00:55:30;;;;;;;3.50;1.60;;;6.20;1.00;;;;;;4991447;28;21104;-72
2021/03/12 00:57:56;;;;;;;4.90;2.17;;;6.20;1.00;;;;;;5037125;28;20442;-73
2021/03/12 01:00:28;;;;;;;3.47;1.60;;;6.10;1.00;;;;;;5006904;28;21077;-72
2021/03/12 01:02:58;;;;;;;3.50;1.63;;;6.10;1.00;;;;;;5005122;28;20859;-75
2021/03/12 01:05:25;;;;;;;11.33;1.83;;;6.10;1.00;;;;;;5008405;28;20490;-72
2021/03/12 01:07:50;;;;;;;8.17;1.97;;;6.20;1.00;;;;;;5019471;28;20462;-73
2021/03/12 01:10:22;;;;;;;4.97;1.67;;;6.20;1.00;;;;;;5004953;28;20438;-72
2021/03/12 01:12:49;;;;;;;6.60;1.63;;;6.20;1.00;;;;;;5021595;28;20476;-72
2021/03/12 01:15:18;;;;;;;4.83;2.03;;;6.20;1.00;;;;;;5002076;28;20452;-75
2021/03/12 01:17:44;;;;;;;5.23;2.37;;;6.20;1.00;;;;;;5005059;28;20450;-75
2021/03/12 01:20:20;;;;;;;7.10;2.00;;;6.20;1.00;;;;;;5004222;28;20962;-75
2021/03/12 01:22:47;;;;;;;12.17;2.20;;;6.20;1.00;;;;;;5018819;28;20484;-75
2021/03/12 01:25:16;;;;;;;3.87;1.60;;;6.20;1.00;;;;;;5024220;28;20441;-73
2021/03/12 01:27:42;;;;;;;7.20;2.30;;;6.20;1.00;;;;;;5003776;28;20978;-72
2021/03/12 01:30:27;;;;;;;5.57;1.87;;;6.10;1.00;;;;;;5009101;28;21048;-75
2021/03/12 01:32:53;;;;;;;9.30;2.13;;;6.10;1.00;;;;;;5021024;28;20507;-72
2021/03/12 01:35:21;;;;;;;5.30;2.27;;;6.10;1.00;;;;;;5022103;28;20851;-72
2021/03/12 01:37:47;;;;;;;10.63;2.30;;;6.10;1.00;;;;;;5007081;28;20552;-72
2021/03/12 01:40:17;;;;;;;8.67;2.30;;;6.10;1.00;;;;;;4984910;28;21943;-72
2021/03/12 01:42:46;;;;;;;9.50;2.63;;;6.10;1.00;;;;;;5016369;28;20503;-72
2021/03/12 01:45:36;;;;;;;4.90;2.03;;;6.10;1.00;;;;;;5006706;28;21030;-73
2021/03/12 01:48:06;;;;;;;9.30;2.47;;;6.10;1.00;;;;;;5022863;28;20206;-72
2021/03/12 01:50:32;;;;;;;8.70;2.67;;;5.90;1.00;;;;;;5021445;28;20505;-72
2021/03/12 01:52:58;;;;;;;7.97;2.30;;;5.90;1.00;;;;;;5017202;28;20712;-73
2021/03/12 01:55:32;;;;;;;9.47;2.60;;;5.70;1.00;;;;;;5008587;28;20621;-73
2021/03/12 01:58:02;;;;;;;7.20;2.60;;;5.50;1.00;;;;;;5002294;28;20282;-73
2021/03/12 02:00:35;;;;;;;7.97;4.03;;;5.50;1.00;;;;;;5016854;28;20441;-72
2021/03/12 02:03:13;;;;;;;7.60;2.60;;;5.50;1.00;;;;;;5005357;28;21033;-72
2021/03/12 02:05:50;;;;;;;13.23;2.97;;;5.50;1.00;;;;;;5009597;28;20897;-73
2021/03/12 02:08:16;;;;;;;11.30;2.70;;;5.50;1.00;;;;;;5003865;28;20507;-72
2021/03/12 02:10:51;;;;;;;7.50;2.40;;;5.60;1.00;;;;;;5008613;28;20593;-72
2021/03/12 02:13:46;;;;;;;5.00;2.80;;;5.60;1.00;;;;;;5021700;28;20490;-72
2021/03/12 02:16:27;;;;;;;8.63;3.10;;;5.70;1.00;;;;;;5021382;28;20612;-72
2021/03/12 02:19:02;;;;;;;7.70;2.77;;;5.70;1.00;;;;;;5020613;28;20795;-72
2021/03/12 02:21:38;;;;;;;6.03;2.50;;;5.70;1.00;;;;;;5021545;28;20480;-72
2021/03/12 02:24:19;;;;;;;7.13;3.07;;;5.70;1.00;;;;;;5004205;28;20466;-73
2021/03/12 02:26:44;;;;;;;8.53;2.90;;;5.70;1.00;;;;;;5006313;28;20545;-72
2021/03/12 02:29:22;;;;;;;6.50;3.43;;;5.70;1.00;;;;;;5005743;28;20461;-73
2021/03/12 02:31:52;;;;;;;8.13;2.90;;;5.80;1.00;;;;;;5022184;28;20523;-73
2021/03/12 02:34:21;;;;;;;8.57;2.77;;;5.80;1.00;;;;;;5023205;28;20827;-73
2021/03/12 02:36:55;;;;;;;10.87;3.13;;;5.80;1.00;;;;;;5015786;28;20471;-73
2021/03/12 02:39:24;;;;;;;4.43;2.43;;;5.80;1.00;;;;;;5005741;28;20457;-72
2021/03/12 02:41:54;;;;;;;13.23;3.27;;;5.80;1.00;;;;;;5007435;28;21606;-73
2021/03/12 02:44:29;;;;;;;4.20;3.23;;;5.80;1.00;;;;;;5005853;28;20471;-73
2021/03/12 02:47:03;;;;;;;9.77;3.40;;;5.80;1.00;;;;;;5028352;28;20812;-72
2021/03/12 02:49:31;;;;;;;7.30;2.93;;;5.80;1.00;;;;;;5023825;28;21217;-73
2021/03/12 02:51:58;;;;;;;6.90;3.03;;;5.80;1.00;;;;;;5024159;28;21668;-74
2021/03/12 02:54:24;;;;;;;6.00;2.90;;;5.80;1.00;;;;;;5018768;28;20449;-73
2021/03/12 02:56:51;;;;;;;7.90;2.63;;;5.80;1.00;;;;;;5008217;28;20843;-74
2021/03/12 02:59:20;;;;;;;10.40;3.03;;;5.80;1.00;;;;;;5005392;28;20449;-72
2021/03/12 03:02:04;;;;;;;10.87;2.97;;;5.70;1.00;;;;;;5026269;28;20471;-73
2021/03/12 03:04:41;;;;;;;5.70;2.87;;;5.70;1.00;;;;;;5008840;28;20444;-73
2021/03/12 03:07:22;;;;;;;9.73;3.00;;;5.60;1.00;;;;;;5007081;28;20472;-73
2021/03/12 03:09:51;;;;;;;5.13;2.70;;;5.60;1.00;;;;;;5022861;28;20600;-73
2021/03/12 03:12:19;;;;;;;13.00;2.80;;;5.70;1.00;;;;;;5010075;28;20452;-73
2021/03/12 03:14:47;;;;;;;7.13;2.77;;;5.70;1.00;;;;;;5026759;28;20463;-73
2021/03/12 03:17:15;;;;;;;4.47;2.50;;;5.70;1.00;;;;;;5025461;28;20456;-73
2021/03/12 03:19:46;;;;;;;12.00;2.20;;;5.70;1.00;;;;;;5023343;28;20438;-74
2021/03/12 03:22:13;;;;;;;7.77;2.60;;;5.80;1.00;;;;;;5016220;28;20496;-73
2021/03/12 03:24:39;;;;;;;8.33;2.43;;;5.80;1.00;;;;;;5025801;28;20450;-73
2021/03/12 03:27:08;;;;;;;4.23;3.00;;;5.70;1.00;;;;;;5021593;28;20437;-73
2021/03/12 03:29:35;;;;;;;6.73;2.30;;;5.80;1.00;;;;;;5023669;28;20453;-73
2021/03/12 03:32:01;;;;;;;6.00;2.20;;;5.80;1.00;;;;;;5009227;28;20452;-72
2021/03/12 03:34:27;;;;;;;8.03;2.63;;;5.80;1.00;;;;;;5007820;28;20446;-73
2021/03/12 03:36:53;;;;;;;9.53;3.80;;;5.80;1.00;;;;;;5004798;28;20298;-73
2021/03/12 03:39:19;;;;;;;8.80;3.00;;;5.80;1.00;;;;;;5002706;28;20458;-73
2021/03/12 03:41:51;;;;;;;3.97;3.13;;;5.80;1.00;;;;;;5022878;28;20461;-74
2021/03/12 03:44:25;;;;;;;13.30;3.03;;;5.80;1.00;;;;;;5018090;28;20560;-73
2021/03/12 03:46:54;;;;;;;8.00;2.63;;;5.80;1.00;;;;;;5024249;28;20437;-72
2021/03/12 03:49:20;;;;;;;7.50;2.87;;;5.90;1.00;;;;;;5002468;28;20476;-73
2021/03/12 03:51:48;;;;;;;10.30;3.20;;;5.90;1.00;;;;;;5007466;28;20467;-73
2021/03/12 03:54:21;;;;;;;7.63;2.10;;;5.90;1.00;;;;;;5028694;28;20516;-73
2021/03/12 03:56:49;;;;;;;6.77;2.77;;;5.90;1.00;;;;;;5025602;28;20702;-73
2021/03/12 03:59:16;;;;;;;11.00;2.30;;;5.90;1.00;;;;;;5024625;28;20486;-73
2021/03/12 04:01:44;;;;;;;3.03;2.20;;;5.90;1.00;;;;;;5023897;28;20476;-73
2021/03/12 04:04:15;;;;;;;6.83;2.50;;;5.90;1.00;;;;;;5015419;28;20438;-73
2021/03/12 04:06:44;;;;;;;8.40;2.30;;;5.80;1.00;;;;;;5022559;28;21399;-74
2021/03/12 04:09:16;;;;;;;7.17;2.73;;;5.90;1.00;;;;;;5026501;28;20520;-73
2021/03/12 04:11:44;;;;;;;11.30;2.53;;;5.90;1.00;;;;;;5010280;28;20441;-73
2021/03/12 04:14:16;;;;;;;12.67;2.70;;;5.90;1.00;;;;;;5008067;28;21176;-73
2021/03/12 04:16:43;;;;;;;11.00;2.80;;;5.90;1.00;;;;;;5024279;28;20507;-73
2021/03/12 04:19:10;;;;;;;7.00;2.63;;;5.90;1.00;;;;;;5010359;28;20473;-73
2021/03/12 04:21:38;;;;;;;11.07;3.70;;;5.90;1.00;;;;;;5007578;28;20538;-73
2021/03/12 04:24:05;;;;;;;14.27;3.17;;;5.90;1.00;;;;;;5020920;28;20448;-72
2021/03/12 04:26:31;;;;;;;5.03;1.93;;;5.90;1.00;;;;;;5031626;28;20447;-72
2021/03/12 04:28:57;;;;;;;14.87;3.00;;;5.90;1.00;;;;;;5011038;28;20442;-74
2021/03/12 04:31:26;;;;;;;6.47;2.43;;;5.90;1.00;;;;;;5011271;28;20446;-73
2021/03/12 04:33:54;;;;;;;6.80;2.10;;;5.90;1.00;;;;;;5011660;28;20445;-73
2021/03/12 04:36:21;;;;;;;9.50;2.80;;;5.90;1.00;;;;;;5024697;28;20473;-73
2021/03/12 04:38:49;;;;;;;8.47;2.27;;;5.80;1.00;;;;;;5003077;28;20460;-73
2021/03/12 04:41:16;;;;;;;8.20;2.67;;;5.80;1.00;;;;;;5001414;28;20464;-74
2021/03/12 04:43:42;;;;;;;11.33;2.57;;;5.80;1.00;;;;;;5004192;28;20453;-74
2021/03/12 04:46:12;;;;;;;4.77;2.43;;;5.80;1.00;;;;;;5016990;28;20445;-74
2021/03/12 04:48:42;;;;;;;6.60;2.57;;;5.80;1.00;;;;;;5005421;28;20440;-73
2021/03/12 04:51:12;;;;;;;4.30;2.30;;;5.80;1.00;;;;;;5007731;28;20453;-74
2021/03/12 04:53:42;;;;;;;9.40;3.40;;;5.80;1.00;;;;;;5021035;28;20868;-75
2021/03/12 04:56:09;;;;;;;7.07;3.10;;;5.80;1.00;;;;;;5000459;28;20804;-73
2021/03/12 04:58:38;;;;;;;9.43;3.23;;;5.80;1.00;;;;;;5019382;28;20461;-73
2021/03/12 05:01:08;;;;;;;21.40;4.10;;;5.80;1.00;;;;;;5003272;28;20911;-73
2021/03/12 05:03:38;;;;;;;10.97;2.97;;;5.80;1.00;;;;;;5018698;28;20888;-74
2021/03/12 05:06:06;;;;;;;11.60;3.03;;;5.80;1.00;;;;;;5004174;28;20438;-73
2021/03/12 05:08:33;;;;;;;12.50;3.97;;;5.80;1.00;;;;;;5020709;28;20489;-73
2021/03/12 05:11:09;;;;;;;17.33;4.00;;;5.80;1.00;;;;;;5013984;28;20578;-74
2021/03/12 05:13:43;;;;;;;5.80;2.73;;;5.80;1.00;;;;;;5018413;28;20506;-73
2021/03/12 05:16:08;;;;;;;6.30;2.83;;;5.80;1.00;;;;;;5014790;28;21224;-74
2021/03/12 05:18:34;;;;;;;5.37;2.50;;;5.80;1.00;;;;;;5014039;28;20194;-73
2021/03/12 05:21:04;;;;;;;8.73;2.30;;;5.80;1.00;;;;;;5001096;28;21632;-73
2021/03/12 05:23:29;;;;;;;7.50;2.20;;;5.70;1.00;;;;;;5002193;28;20456;-73
2021/03/12 05:25:56;;;;;;;6.13;2.90;;;5.70;1.00;;;;;;5002409;28;20484;-74
2021/03/12 05:28:22;;;;;;;6.40;2.70;;;5.70;1.00;;;;;;5025999;28;20529;-73
2021/03/12 05:30:48;;;;;;;5.97;2.30;;;5.70;1.00;;;;;;5026368;28;20191;-74
2021/03/12 05:33:14;;;;;;;4.13;1.80;;;5.70;1.00;;;;;;5011579;28;20463;-74
2021/03/12 05:35:40;;;;;;;10.40;2.07;;;5.70;1.00;;;;;;5029284;28;20236;-74
2021/03/12 05:38:05;;;;;;;3.50;1.93;;;5.70;1.00;;;;;;5014499;28;20197;-73
2021/03/12 05:40:33;;;;;;;4.60;2.20;;;5.70;1.00;;;;;;5025544;28;20449;-73
2021/03/12 05:42:59;;;;;;;9.57;2.40;;;5.70;1.00;;;;;;5009623;28;21084;-74
2021/03/12 05:45:26;;;;;;;10.50;2.50;;;5.70;1.00;;;;;;5012741;28;20913;-74
2021/03/12 05:48:09;;;;;;;10.30;2.17;;;5.70;1.00;;;;;;5014855;28;20446;-74
2021/03/12 05:50:36;;;;;;;10.33;3.13;;;5.70;1.00;;;;;;5009908;28;20441;-73
2021/03/12 05:53:02;;;;;;;9.07;2.70;;;5.70;1.00;;;;;;5006428;28;20460;-74
2021/03/12 05:55:30;;;;;;;6.40;2.30;;;5.70;1.00;;;;;;5003626;28;20876;-74
2021/03/12 05:57:59;;;;;;;6.03;2.00;;;5.70;1.00;;;;;;5020976;28;20442;-73
2021/03/12 06:00:29;;;;;;;8.07;1.80;;;5.70;1.00;;;;;;5019064;28;20992;-74
2021/03/12 06:02:57;;;;;;;6.00;2.13;;;5.60;1.00;;;;;;5005856;28;20559;-73
2021/03/12 06:05:32;;;;;;;9.70;2.43;;;5.60;1.00;;;;;;5008112;28;20495;-74
2021/03/12 06:07:58;;;;;;;10.40;3.00;;;5.60;1.00;;;;;;5022044;28;20453;-73
2021/03/12 06:10:25;;;;;;;9.20;1.53;;;5.70;1.00;;;;;;5003948;28;20222;-74
2021/03/12 06:12:55;;;;;;;13.70;2.17;;;5.70;1.00;;;;;;5006349;28;20464;-74
2021/03/12 06:15:36;;;;;;;5.20;1.73;;;5.70;1.00;;;;;;5007672;28;22571;-74
2021/03/12 06:18:27;;;;;;;5.80;2.57;;;5.70;1.00;;;;;;5018324;28;20967;-74
2021/03/12 06:21:00;;;;;;;8.27;2.30;;;5.70;1.00;;;;;;5002516;28;20604;-74
2021/03/12 06:23:40;;;;;;;13.40;2.47;;;5.70;1.00;;;;;;5022663;28;20541;-74
2021/03/12 06:26:45;;;;;;;11.47;2.17;;;5.70;1.00;;;;;;5019668;28;21889;-73
2021/03/12 06:29:37;;;;;;;7.23;2.40;;;5.70;1.00;;;;;;5013345;28;20455;-74
2021/03/12 06:32:45;;;;;;;7.13;2.63;;;5.70;1.00;;;;;;5027733;28;20445;-74
2021/03/12 06:35:21;;;;;;;9.13;3.50;;;5.70;1.00;;;;;;5020310;28;20556;-74
2021/03/12 06:38:08;;;;;;;11.00;3.13;;;5.70;1.00;;;;;;5032019;28;20991;-73
2021/03/12 06:40:42;;;;;;;9.03;1.93;;;5.70;1.00;;;;;;5012973;28;20543;-74
2021/03/12 06:43:25;;;;;;;10.83;2.40;;;5.80;1.00;;;;;;5009980;28;21269;-74
2021/03/12 06:45:59;;;;;;;8.03;2.73;;;5.80;1.00;;;;;;5003067;28;20469;-74
2021/03/12 06:48:32;;;;;;;12.40;3.13;;;5.80;1.00;;;;;;5005753;28;21081;-75
2021/03/12 06:51:16;;;;;;;8.30;2.60;;;5.80;1.00;;;;;;5029167;28;20440;-74
2021/03/12 06:53:45;;;;;;;15.57;3.50;;;5.90;1.00;;;;;;5015292;28;20461;-75
2021/03/12 06:56:15;;;;;;;10.70;2.87;;;5.90;1.00;;;;;;5021878;28;20751;-74
2021/03/12 06:59:00;;;;;;;16.33;2.80;;;5.90;1.00;;;;;;5018647;28;20992;-74
2021/03/12 07:01:31;;;;;;;6.80;3.13;;;5.90;1.00;;;;;;5021522;28;20464;-73
2021/03/12 07:04:07;;;;;;;14.03;3.20;;;5.90;1.00;;;;;;5030994;28;20496;-74
2021/03/12 07:06:44;;;;;;;11.70;2.90;;;5.90;1.00;;;;;;5037017;28;20455;-74
2021/03/12 07:09:12;;;;;;;7.87;2.47;;;5.90;1.00;;;;;;5021784;28;20461;-74
2021/03/12 07:12:02;;;;;;;10.10;3.43;;;5.90;1.00;;;;;;5004256;28;20594;-74
2021/03/12 07:14:53;;;;;;;12.93;2.93;;;5.90;1.00;;;;;;5007009;28;20548;-74
2021/03/12 07:17:40;;;;;;;9.17;3.13;;;6.00;1.00;;;;;;5021251;28;20449;-75
2021/03/12 07:20:20;;;;;;;17.00;2.77;;;6.00;1.00;;;;;;5021657;28;20966;-74
2021/03/12 07:22:49;;;;;;;13.60;3.40;;;6.00;1.00;;;;;;5010295;28;21043;-74
2021/03/12 07:25:21;;;;;;;12.60;2.63;;;6.00;1.00;;;;;;5013991;28;20492;-74
2021/03/12 07:27:52;;;;;;;15.57;3.50;;;6.00;1.00;;;;;;5012860;28;20443;-74
2021/03/12 07:30:26;;;;;;;12.67;3.00;;;6.00;1.00;;;;;;5024593;28;20526;-73
2021/03/12 07:32:54;;;;;;;10.50;2.80;;;6.10;1.00;;;;;;5026390;28;20457;-75
2021/03/12 07:35:27;;;;;;;16.00;3.50;;;6.10;1.00;;;;;;5016846;28;20442;-74
2021/03/12 07:38:22;;;;;;;12.10;2.60;;;6.10;1.00;;;;;;5031086;28;20465;-74
2021/03/12 07:41:05;;;;;;;7.97;2.53;;;6.20;1.00;;;;;;5013207;28;20577;-74
2021/03/12 07:43:45;;;;;;;15.70;2.70;;;6.20;1.00;;;;;;5028323;28;20471;-73
2021/03/12 07:46:27;;;;;;;10.93;3.03;;;6.30;1.00;;;;;;5013253;28;20445;-73
2021/03/12 07:49:27;;;;;;;12.47;2.53;;;6.30;1.00;;;;;;5010936;28;20873;-74
2021/03/12 07:51:56;;;;;;;21.40;3.90;;;6.30;1.00;;;;;;5025793;28;20454;-74
2021/03/12 07:54:50;;;;;;;14.37;3.47;;;6.30;1.00;;;;;;5015132;28;20581;-74
2021/03/12 07:57:41;;;;;;;16.03;3.20;;;6.30;1.00;;;;;;5014809;28;20568;-74
2021/03/12 08:00:51;;;;;;;16.80;3.73;;;6.40;1.00;;;;;;5028306;28;21279;-74
2021/03/12 08:03:30;;;;;;;10.67;2.70;;;6.30;1.00;;;;;;5005520;28;20819;-74
2021/03/12 08:06:31;;;;;;;12.53;2.70;;;6.40;1.00;;;;;;5022534;28;21057;-74
2021/03/12 08:09:31;;;;;;;9.83;2.53;;;6.40;1.00;;;;;;5022206;28;20508;-74
2021/03/12 08:12:33;;;;;;;11.13;2.20;;;6.40;1.00;;;;;;5010936;28;20445;-74
2021/03/12 08:15:33;;;;;;;11.63;4.07;;;6.50;1.00;;;;;;5010797;28;20458;-74
2021/03/12 08:18:12;;;;;;;13.83;2.97;;;6.60;1.00;;;;;;5020731;28;21932;-74
2021/03/12 08:20:49;;;;;;;9.03;2.53;;;6.60;1.00;;;;;;5005839;28;21150;-74
2021/03/12 08:23:34;;;;;;;14.53;3.17;;;6.60;1.00;;;;;;5008972;28;20453;-74
2021/03/12 08:26:07;;;;;;;16.23;2.90;;;6.70;1.00;;;;;;5021503;28;20442;-74
2021/03/12 08:28:52;;;;;;;13.43;3.20;;;6.70;1.00;;;;;;5026477;28;20446;-74
2021/03/12 08:31:43;;;;;;;10.90;3.50;;;6.80;1.00;;;;;;5008534;28;20453;-74
2021/03/12 08:34:40;;;;;;;10.47;2.67;;;6.80;1.00;;;;;;5024593;28;20457;-74
2021/03/12 08:37:27;;;;;;;18.90;3.27;;;6.80;1.00;;;;;;5009613;28;20519;-74
2021/03/12 08:40:14;;;;;;;12.93;2.43;;;6.80;1.00;;;;;;5020740;28;20487;-74
2021/03/12 08:43:11;;;;;;;10.80;2.80;;;6.90;1.00;;;;;;5033357;28;21204;-73
2021/03/12 08:45:51;;;;;;;11.03;3.50;;;7.00;1.00;;;;;;5019373;28;20481;-73
2021/03/12 08:48:29;;;;;;;8.93;2.37;;;7.10;1.00;;;;;;5011860;28;20444;-73
2021/03/12 08:51:02;;;;;;;8.23;2.43;;;7.20;1.00;;;;;;5002691;28;20470;-73
2021/03/12 08:53:31;;;;;;;11.13;2.93;;;7.30;1.00;;;;;;5021612;28;20461;-73
2021/03/12 08:56:00;;;;;;;20.00;3.13;;;7.40;1.00;;;;;;5019177;28;20728;-74
2021/03/12 08:58:37;;;;;;;13.57;2.80;;;7.30;1.00;;;;;;5007675;28;20453;-74
2021/03/12 09:01:11;;;;;;;9.33;2.40;;;7.40;1.00;;;;;;5001069;28;20501;-74
2021/03/12 09:03:57;;;;;;;11.37;3.37;;;7.40;1.00;;;;;;5004344;28;20453;-74
2021/03/12 09:06:41;;;;;;;13.57;2.97;;;7.40;1.00;;;;;;5009212;28;20444;-73
2021/03/12 09:09:29;;;;;;;8.17;2.53;;;7.50;1.00;;;;;;5018447;28;20893;-74
2021/03/12 09:12:17;;;;;;;8.47;2.83;;;7.40;1.00;;;;;;5019773;28;20922;-74
2021/03/12 09:14:51;;;;;;;10.40;2.83;;;7.40;1.00;;;;;;5017032;28;20453;-74
2021/03/12 09:17:19;;;;;;;12.20;2.83;;;7.40;1.00;;;;;;5010641;28;20588;-73
2021/03/12 09:19:48;;;;;;;20.13;3.73;;;7.40;1.00;;;;;;5010945;28;20558;-74
2021/03/12 09:22:22;;;;;;;16.73;3.43;;;7.50;1.00;;;;;;5013690;28;20545;-74
2021/03/12 09:24:53;;;;;;;13.10;2.60;;;7.50;1.00;;;;;;5011973;28;20441;-75
2021/03/12 09:27:24;;;;;;;17.73;3.67;;;7.50;1.00;;;;;;5009656;28;20496;-72
2021/03/12 09:29:59;;;;;;;11.03;3.07;;;7.50;1.00;;;;;;5021904;28;20447;-72
2021/03/12 09:32:39;;;;;;;11.40;3.03;;;7.50;1.00;;;;;;5001112;28;20493;-74
2021/03/12 09:35:16;;;;;;;8.40;3.17;;;7.60;1.00;;;;;;4997419;28;22008;-75
2021/03/12 09:37:43;;;;;;;15.70;3.00;;;7.70;1.00;;;;;;5016337;28;20474;-74
2021/03/12 09:40:39;;;;;;;10.03;3.10;;;7.60;1.00;;;;;;4998897;28;20503;-72
2021/03/12 09:43:20;;;;;;;8.83;2.83;;;7.60;1.00;;;;;;5025664;28;20447;-73
2021/03/12 09:46:01;;;;;;;9.90;3.37;;;7.70;1.00;;;;;;5019342;28;20535;-74
2021/03/12 09:48:41;;;;;;;9.80;2.33;;;8.00;1.00;;;;;;5008480;28;20855;-73
2021/03/12 09:51:14;;;;;;;18.30;3.10;;;8.10;1.00;;;;;;5021661;28;20445;-73
2021/03/12 09:53:42;;;;;;;13.33;3.10;;;8.30;1.00;;;;;;5037071;28;20492;-73
2021/03/12 09:56:13;;;;;;;12.70;3.53;;;8.20;1.00;;;;;;5014651;28;20486;-73
2021/03/12 09:58:46;;;;;;;10.37;3.57;;;8.00;1.00;;;;;;5027040;28;20450;-73
2021/03/12 10:01:39;;;;;;;14.03;3.17;;;7.90;1.00;;;;;;5029901;28;20837;-73
2021/03/12 10:04:27;;;;;;;7.43;3.13;;;8.10;1.00;;;;;;5018185;28;20475;-72
2021/03/12 10:07:19;;;;;;;15.10;3.50;;;7.90;1.00;;;;;;5010699;28;20463;-73
2021/03/12 10:09:49;;;;;;;10.43;2.77;;;8.00;1.00;;;;;;5012100;28;20498;-73
2021/03/12 10:12:41;;;;;;;9.50;2.83;;;8.00;1.00;;;;;;5015778;28;20519;-73
2021/03/12 10:15:13;;;;;;;10.13;2.43;;;7.90;1.00;;;;;;5023925;28;20490;-72
2021/03/12 10:17:47;;;;;;;12.13;2.43;;;8.10;1.00;;;;;;5030391;28;20442;-73
2021/03/12 10:20:24;;;;;;;16.13;4.33;;;8.00;1.00;;;;;;5012175;28;20923;-73
2021/03/12 10:22:59;;;;;;;20.10;2.70;;;8.10;1.00;;;;;;5032033;28;20475;-73
2021/03/12 10:25:31;;;;;;;8.50;2.37;;;8.40;1.00;;;;;;5032133;28;21036;-73
2021/03/12 10:28:00;;;;;;;10.07;3.03;;;8.70;1.00;;;;;;5032424;28;20438;-73
2021/03/12 10:30:33;;;;;;;16.20;3.20;;;8.80;1.00;;;;;;5021687;28;20466;-73
2021/03/12 10:33:02;;;;;;;11.83;1.90;;;8.80;1.00;;;;;;5030487;28;20504;-73
2021/03/12 10:35:31;;;;;;;8.20;2.40;;;8.60;1.00;;;;;;5021355;28;20495;-73
2021/03/12 10:38:00;;;;;;;12.77;2.67;;;8.60;1.00;;;;;;5033073;28;20458;-73
2021/03/12 10:40:27;;;;;;;14.90;4.27;;;8.80;1.00;;;;;;5034743;28;20602;-74
2021/03/12 10:42:52;;;;;;;16.77;4.20;;;8.80;1.00;;;;;;5016322;28;20464;-73
2021/03/12 10:45:29;;;;;;;13.33;2.87;;;8.80;1.00;;;;;;5042063;28;20447;-73
2021/03/12 10:47:56;;;;;;;7.80;2.03;;;8.60;1.00;;;;;;5037638;28;20190;-73
2021/03/12 10:50:22;;;;;;;7.80;2.00;;;8.60;1.00;;;;;;5041833;28;20505;-74
2021/03/12 10:52:48;;;;;;;13.73;2.70;;;8.70;1.00;;;;;;5039675;28;20446;-73
2021/03/12 10:55:15;;;;;;;9.43;1.73;;;8.60;1.00;;;;;;5035445;28;21135;-73
2021/03/12 10:57:48;;;;;;;12.47;3.27;;;8.50;1.00;;;;;;5032688;28;20860;-73
2021/03/12 11:00:20;;;;;;;8.93;2.07;;;8.30;1.00;;;;;;5028656;28;20461;-73
2021/03/12 11:02:46;;;;;;;9.10;2.53;;;8.40;1.00;;;;;;5027003;28;20474;-73
2021/03/12 11:05:13;;;;;;;6.70;2.10;;;8.40;1.00;;;;;;5008926;28;20447;-74
2021/03/12 11:07:41;;;;;;;11.10;3.80;;;8.40;1.00;;;;;;5024864;28;21999;-73
2021/03/12 11:10:07;;;;;;;8.53;3.37;;;8.60;1.00;;;;;;5020985;28;20465;-73
2021/03/12 11:12:42;;;;;;;13.57;2.50;;;8.70;1.00;;;;;;5018658;28;20514;-73
2021/03/12 11:15:12;;;;;;;8.30;2.90;;;8.70;1.00;;;;;;5026489;28;20463;-73
2021/03/12 11:17:40;;;;;;;14.97;3.37;;;8.80;1.00;;;;;;5010158;28;20450;-74
2021/03/12 11:20:07;;;;;;;10.80;1.97;;;9.00;1.00;;;;;;5019697;28;20505;-74
2021/03/12 11:22:34;;;;;;;9.77;3.30;;;9.00;1.00;;;;;;5029391;28;20595;-74
2021/03/12 11:25:01;;;;;;;10.10;1.70;;;8.90;1.00;;;;;;5025868;28;20458;-73
2021/03/12 11:27:27;;;;;;;11.53;2.33;;;8.80;1.00;;;;;;5015353;28;20449;-74
2021/03/12 11:29:54;;;;;;;5.90;1.93;;;8.90;1.00;;;;;;5025348;28;22526;-73
2021/03/12 11:32:20;;;;;;;14.93;2.40;;;8.80;1.00;;;;;;5024973;28;20222;-73
2021/03/12 11:34:46;;;;;;;11.33;2.60;;;8.90;1.00;;;;;;5027626;28;20462;-73
2021/03/12 11:37:12;;;;;;;13.83;2.23;;;8.90;1.00;;;;;;5028039;28;20450;-73
2021/03/12 11:39:38;;;;;;;8.90;2.97;;;9.00;1.00;;;;;;5028864;28;20484;-73
2021/03/12 11:42:04;;;;;;;6.80;2.10;;;9.00;1.00;;;;;;5026541;28;20305;-73
2021/03/12 11:44:31;;;;;;;8.73;2.70;;;9.10;1.00;;;;;;5025151;28;20602;-73
2021/03/12 11:46:57;;;;;;;9.10;2.10;;;9.20;1.00;;;;;;5031039;28;20214;-74
2021/03/12 11:49:22;;;;;;;9.97;2.40;;;9.10;1.00;;;;;;5023116;28;21048;-73
2021/03/12 11:51:51;;;;;;;15.40;2.50;;;9.10;1.00;;;;;;5033631;28;20556;-72
2021/03/12 11:54:17;;;;;;;12.33;2.30;;;9.10;1.00;;;;;;5034096;28;20215;-73
2021/03/12 11:56:43;;;;;;;12.93;2.30;;;9.10;1.00;;;;;;5034210;28;20470;-73
2021/03/12 11:59:09;;;;;;;6.90;1.50;;;9.10;1.00;;;;;;5020508;28;20191;-72
2021/03/12 12:01:35;;;;;;;6.97;2.07;;;9.00;1.00;;;;;;5027573;28;20560;-73
2021/03/12 12:04:01;;;;;;;5.80;2.00;;;9.10;1.00;;;;;;5030992;28;20435;-72
2021/03/12 12:06:27;;;;;;;11.40;2.20;;;9.40;1.00;;;;;;5021856;28;20479;-72
2021/03/12 12:08:52;;;;;;;12.33;2.23;;;9.50;1.00;;;;;;5019669;28;20708;-73
2021/03/12 12:11:18;;;;;;;5.63;1.43;;;9.50;1.00;;;;;;5008212;28;20201;-73
2021/03/12 12:13:43;;;;;;;5.63;2.10;;;9.50;1.00;;;;;;5022594;28;20196;-72
2021/03/12 12:16:09;;;;;;;15.03;3.10;;;9.50;1.00;;;;;;5019816;28;20194;-72
2021/03/12 12:18:35;;;;;;;9.50;1.97;;;9.50;1.00;;;;;;5006566;28;20191;-72
2021/03/12 12:21:00;;;;;;;8.43;2.10;;;9.70;1.00;;;;;;5007907;28;20187;-73
2021/03/12 12:23:26;;;;;;;17.23;2.20;;;9.80;1.00;;;;;;5025137;28;20942;-73
2021/03/12 12:25:52;;;;;;;8.23;1.80;;;9.70;1.00;;;;;;5020469;28;20249;-72
2021/03/12 12:28:17;;;;;;;7.67;2.40;;;10.00;1.00;;;;;;5006241;28;20221;-73
2021/03/12 12:30:44;;;;;;;9.37;2.13;;;10.00;1.00;;;;;;5018795;28;20399;-73
2021/03/12 12:33:10;;;;;;;5.60;1.73;;;10.10;1.00;;;;;;5019506;28;20259;-72
2021/03/12 12:35:37;;;;;;;7.20;1.80;;;10.20;1.00;;;;;;5023605;28;20947;-73
2021/03/12 12:38:03;;;;;;;6.47;1.90;;;9.80;1.00;;;;;;5030289;28;20199;-73
2021/03/12 12:40:29;;;;;;;7.77;2.17;;;9.80;1.00;;;;;;5004097;28;21026;-73
2021/03/12 12:42:55;;;;;;;6.50;2.70;;;9.60;1.00;;;;;;5002958;28;20700;-73
2021/03/12 12:45:20;;;;;;;9.57;1.83;;;9.60;1.00;;;;;;5021629;28;20198;-72
2021/03/12 12:47:46;;;;;;;12.00;2.50;;;9.50;1.00;;;;;;5007987;28;20192;-72
2021/03/12 12:50:14;;;;;;;6.80;1.87;;;9.40;1.00;;;;;;5026093;28;21156;-72
2021/03/12 12:52:40;;;;;;;9.10;1.93;;;9.50;1.00;;;;;;5021399;28;20783;-73
2021/03/12 12:55:06;;;;;;;6.20;1.90;;;9.70;1.00;;;;;;5019317;28;20472;-72
2021/03/12 12:57:32;;;;;;;5.77;1.50;;;9.60;1.00;;;;;;5002326;28;20623;-73
2021/03/12 12:59:58;;;;;;;9.77;1.70;;;9.40;1.00;;;;;;5021366;28;20474;-72
2021/03/12 13:02:24;;;;;;;5.53;2.30;;;9.30;1.00;;;;;;5024236;28;20770;-73
2021/03/12 13:04:49;;;;;;;7.70;1.93;;;9.20;1.00;;;;;;5021513;28;20443;-72
2021/03/12 13:07:15;;;;;;;5.00;1.70;;;9.10;1.00;;;;;;5006944;28;20865;-73
2021/03/12 13:09:41;;;;;;;5.70;1.67;;;9.10;1.00;;;;;;5023438;28;20555;-73
2021/03/12 13:12:07;;;;;;;6.43;1.80;;;9.20;1.00;;;;;;5020834;28;20188;-72
2021/03/12 13:14:32;;;;;;;5.83;1.87;;;9.60;1.00;;;;;;5008229;28;25000;-73
2021/03/12 13:16:58;;;;;;;5.13;1.83;;;9.80;1.00;;;;;;5010705;28;20442;-72
2021/03/12 13:19:24;;;;;;;10.50;2.47;;;9.80;1.00;;;;;;5008240;28;20192;-73
2021/03/12 13:21:51;;;;;;;9.10;1.57;;;9.80;1.00;;;;;;5020981;28;21630;-72
2021/03/12 13:24:16;;;;;;;12.03;3.30;;;9.70;1.00;;;;;;5025153;28;20465;-73
2021/03/12 13:26:42;;;;;;;13.37;1.70;;;9.40;1.00;;;;;;5022854;28;20508;-73
2021/03/12 13:29:12;;;;;;;12.53;4.00;;;9.20;1.00;;;;;;5022308;28;20189;-73